sensor_id;sensor_type;location;lat;lon;timestamp;pressure;altitude;pressure_sealevel;temperature;humidity
8318;BME280;4196;48.926;8.964;2023-05-02T00:01:10;99159.19;;;8.71;100.00
8318;BME280;4196;48.926;8.964;2023-05-02T00:03:56;99125.50;;;8.50;100.00
8318;BME280;4196;48.926;8.964;2023-05-02T00:06:43;99130.63;;;8.45;100.00
8318;BME280;4196;48.926;8.964;2023-05-02T00:09:31;99165.97;;;8.57;100.00
8318;BME280;4196;48.926;8.964;2023-05-02T00:12:18;99158.19;;;8.54;100.00
8318;BME280;4196;48.926;8.964;2023-05-02T00:15:05;99151.28;;;8.48;100.00
8318;BME280;4196;48.926;8.964;2023-05-02T00:17:53;99141.88;;;8.58;100.00
8318;BME280;4196;48.926;8.964;2023-05-02T00:20:42;99150.59;;;8.75;100.00
8318;BME280;4196;48.926;8.964;2023-05-02T00:23:29;99144.56;;;8.70;100.00
8318;BME280;4196;48.926;8.964;2023-05-02T00:26:15;99156.47;;;8.53;100.00
8318;BME280;4196;48.926;8.964;2023-05-02T00:29:02;99108.00;;;8.16;100.00
8318;BME280;4196;48.926;8.964;2023-05-02T00:31:48;99156.28;;;8.31;100.00
8318;BME280;4196;48.926;8.964;2023-05-02T00:34:35;99147.56;;;8.15;100.00
8318;BME280;4196;48.926;8.964;2023-05-02T00:37:25;99159.56;;;8.10;100.00
8318;BME280;4196;48.926;8.964;2023-05-02T00:40:15;99158.59;;;8.01;100.00
8318;BME280;4196;48.926;8.964;2023-05-02T00:43:02;99161.16;;;7.96;100.00
8318;BME280;4196;48.926;8.964;2023-05-02T00:45:51;99169.69;;;7.89;100.00
8318;BME280;4196;48.926;8.964;2023-05-02T00:48:38;99101.38;;;7.45;100.00
8318;BME280;4196;48.926;8.964;2023-05-02T00:51:25;99147.16;;;7.72;100.00
8318;BME280;4196;48.926;8.964;2023-05-02T00:54:13;99154.84;;;7.68;100.00
8318;BME280;4196;48.926;8.964;2023-05-02T00:56:59;99165.19;;;7.71;100.00
8318;BME280;4196;48.926;8.964;2023-05-02T00:59:51;99172.06;;;7.70;100.00
8318;BME280;4196;48.926;8.964;2023-05-02T01:02:47;99163.47;;;7.70;100.00
8318;BME280;4196;48.926;8.964;2023-05-02T01:09:06;99162.25;;;8.24;100.00
8318;BME280;4196;48.926;8.964;2023-05-02T01:12:27;99160.31;;;8.02;100.00
8318;BME280;4196;48.926;8.964;2023-05-02T01:15:19;99151.47;;;7.73;100.00
8318;BME280;4196;48.926;8.964;2023-05-02T01:18:12;99144.47;;;7.59;100.00
8318;BME280;4196;48.926;8.964;2023-05-02T01:21:01;99158.16;;;7.58;100.00
8318;BME280;4196;48.926;8.964;2023-05-02T01:24:01;99152.88;;;7.45;100.00
8318;BME280;4196;48.926;8.964;2023-05-02T01:27:03;99151.97;;;7.40;100.00
8318;BME280;4196;48.926;8.964;2023-05-02T01:29:53;99151.00;;;7.29;100.00
8318;BME280;4196;48.926;8.964;2023-05-02T01:32:56;99166.44;;;7.29;100.00
8318;BME280;4196;48.926;8.964;2023-05-02T01:35:45;99166.44;;;7.31;100.00
8318;BME280;4196;48.926;8.964;2023-05-02T01:38:35;99168.13;;;7.27;100.00
8318;BME280;4196;48.926;8.964;2023-05-02T01:41:26;99166.28;;;7.17;100.00
8318;BME280;4196;48.926;8.964;2023-05-02T01:44:22;99177.44;;;7.17;100.00
8318;BME280;4196;48.926;8.964;2023-05-02T01:47:09;99182.53;;;7.11;100.00
8318;BME280;4196;48.926;8.964;2023-05-02T01:49:58;99146.97;;;6.84;100.00
8318;BME280;4196;48.926;8.964;2023-05-02T01:52:50;99189.41;;;7.14;100.00
8318;BME280;4196;48.926;8.964;2023-05-02T01:55:42;99183.41;;;7.13;100.00
8318;BME280;4196;48.926;8.964;2023-05-02T01:58:32;99195.41;;;7.13;100.00
8318;BME280;4196;48.926;8.964;2023-05-02T02:01:23;99162.44;;;6.87;100.00
8318;BME280;4196;48.926;8.964;2023-05-02T02:04:14;99187.38;;;6.91;100.00
8318;BME280;4196;48.926;8.964;2023-05-02T02:07:08;99188.34;;;6.99;100.00
8318;BME280;4196;48.926;8.964;2023-05-02T02:09:56;99192.78;;;7.10;100.00
8318;BME280;4196;48.926;8.964;2023-05-02T02:13:01;99163.91;;;6.70;100.00
8318;BME280;4196;48.926;8.964;2023-05-02T02:15:50;99192.31;;;6.76;100.00
8318;BME280;4196;48.926;8.964;2023-05-02T02:18:43;99169.75;;;6.57;100.00
8318;BME280;4196;48.926;8.964;2023-05-02T02:21:31;99195.00;;;6.82;100.00
8318;BME280;4196;48.926;8.964;2023-05-02T02:24:20;99223.41;;;6.90;100.00
8318;BME280;4196;48.926;8.964;2023-05-02T02:27:08;99172.69;;;6.84;100.00
8318;BME280;4196;48.926;8.964;2023-05-02T02:29:54;99219.59;;;7.24;100.00
8318;BME280;4196;48.926;8.964;2023-05-02T02:32:40;99224.59;;;7.12;100.00
8318;BME280;4196;48.926;8.964;2023-05-02T02:35:32;99220.09;;;6.97;100.00
8318;BME280;4196;48.926;8.964;2023-05-02T02:38:48;99230.34;;;6.94;100.00
8318;BME280;4196;48.926;8.964;2023-05-02T02:41:41;99230.19;;;6.85;100.00
8318;BME280;4196;48.926;8.964;2023-05-02T02:51:13;99227.66;;;6.86;100.00
8318;BME280;4196;48.926;8.964;2023-05-02T02:54:17;99253.44;;;6.89;100.00
8318;BME280;4196;48.926;8.964;2023-05-02T02:57:23;99257.72;;;6.90;100.00
8318;BME280;4196;48.926;8.964;2023-05-02T03:00:19;99249.84;;;6.81;100.00
8318;BME280;4196;48.926;8.964;2023-05-02T03:03:08;99259.41;;;6.87;100.00
8318;BME280;4196;48.926;8.964;2023-05-02T03:05:56;99256.75;;;6.82;100.00
8318;BME280;4196;48.926;8.964;2023-05-02T03:08:43;99223.88;;;6.66;100.00
8318;BME280;4196;48.926;8.964;2023-05-02T03:11:35;99256.03;;;6.91;100.00
8318;BME280;4196;48.926;8.964;2023-05-02T03:14:22;99271.53;;;6.94;100.00
8318;BME280;4196;48.926;8.964;2023-05-02T03:17:09;99265.50;;;6.93;100.00
8318;BME280;4196;48.926;8.964;2023-05-02T03:19:56;99275.09;;;7.04;100.00
8318;BME280;4196;48.926;8.964;2023-05-02T03:22:43;99265.63;;;7.02;100.00
8318;BME280;4196;48.926;8.964;2023-05-02T03:25:30;99255.34;;;7.02;100.00
8318;BME280;4196;48.926;8.964;2023-05-02T03:28:17;99274.38;;;7.12;100.00
8318;BME280;4196;48.926;8.964;2023-05-02T03:31:06;99292.56;;;7.24;100.00
8318;BME280;4196;48.926;8.964;2023-05-02T03:33:57;99284.88;;;7.28;100.00
8318;BME280;4196;48.926;8.964;2023-05-02T03:36:44;99275.47;;;7.30;100.00
8318;BME280;4196;48.926;8.964;2023-05-02T03:39:30;99294.59;;;7.45;100.00
8318;BME280;4196;48.926;8.964;2023-05-02T03:42:16;99295.59;;;7.57;100.00
8318;BME280;4196;48.926;8.964;2023-05-02T03:45:03;99285.31;;;7.60;100.00
8318;BME280;4196;48.926;8.964;2023-05-02T03:47:50;99307.97;;;7.85;100.00
8318;BME280;4196;48.926;8.964;2023-05-02T03:50:36;99289.03;;;7.83;100.00
8318;BME280;4196;48.926;8.964;2023-05-02T03:53:24;99296.94;;;7.97;100.00
8318;BME280;4196;48.926;8.964;2023-05-02T03:56:18;99313.41;;;8.07;100.00
8318;BME280;4196;48.926;8.964;2023-05-02T03:59:13;99295.22;;;7.97;100.00
8318;BME280;4196;48.926;8.964;2023-05-02T04:02:00;99315.28;;;8.23;100.00
8318;BME280;4196;48.926;8.964;2023-05-02T04:04:56;99317.81;;;8.18;100.00
8318;BME280;4196;48.926;8.964;2023-05-02T04:07:42;99322.13;;;8.21;100.00
8318;BME280;4196;48.926;8.964;2023-05-02T04:10:29;99301.50;;;8.21;100.00
8318;BME280;4196;48.926;8.964;2023-05-02T04:13:19;99304.16;;;8.26;100.00
8318;BME280;4196;48.926;8.964;2023-05-02T04:16:08;99320.63;;;8.38;100.00
8318;BME280;4196;48.926;8.964;2023-05-02T04:18:56;99231.59;;;7.95;100.00
8318;BME280;4196;48.926;8.964;2023-05-02T04:21:44;99318.22;;;8.51;100.00
8318;BME280;4196;48.926;8.964;2023-05-02T04:24:32;99306.97;;;8.49;100.00
8318;BME280;4196;48.926;8.964;2023-05-02T04:27:18;99306.94;;;8.45;100.00
8318;BME280;4196;48.926;8.964;2023-05-02T04:30:06;99331.97;;;8.53;100.00
8318;BME280;4196;48.926;8.964;2023-05-02T04:32:52;99303.31;;;8.31;100.00
8318;BME280;4196;48.926;8.964;2023-05-02T04:35:40;99324.19;;;8.48;100.00
8318;BME280;4196;48.926;8.964;2023-05-02T04:38:29;99334.63;;;8.59;100.00
8318;BME280;4196;48.926;8.964;2023-05-02T04:41:15;99304.16;;;8.26;100.00
8318;BME280;4196;48.926;8.964;2023-05-02T04:44:09;99349.19;;;8.54;100.00
8318;BME280;4196;48.926;8.964;2023-05-02T04:46:57;99356.06;;;8.53;100.00
8318;BME280;4196;48.926;8.964;2023-05-02T04:49:43;99361.25;;;8.55;100.00
8318;BME280;4196;48.926;8.964;2023-05-02T04:52:29;99367.31;;;8.61;100.00
8318;BME280;4196;48.926;8.964;2023-05-02T04:55:16;99352.63;;;8.54;100.00
8318;BME280;4196;48.926;8.964;2023-05-02T04:58:03;99365.75;;;8.74;100.00
8318;BME280;4196;48.926;8.964;2023-05-02T05:00:51;99351.16;;;8.78;100.00
8318;BME280;4196;48.926;8.964;2023-05-02T05:03:37;99370.19;;;8.90;100.00
8318;BME280;4196;48.926;8.964;2023-05-02T05:06:25;99370.34;;;9.09;100.00
8318;BME280;4196;48.926;8.964;2023-05-02T05:09:13;99394.63;;;9.29;100.00
8318;BME280;4196;48.926;8.964;2023-05-02T05:12:00;99403.28;;;9.34;100.00
8318;BME280;4196;48.926;8.964;2023-05-02T05:14:49;99405.94;;;9.45;100.00
8318;BME280;4196;48.926;8.964;2023-05-02T05:17:36;99392.09;;;9.34;100.00
8318;BME280;4196;48.926;8.964;2023-05-02T05:20:23;99404.31;;;9.61;100.00
8318;BME280;4196;48.926;8.964;2023-05-02T05:23:13;99409.53;;;9.67;100.00
8318;BME280;4196;48.926;8.964;2023-05-02T05:26:16;99417.34;;;9.75;100.00
8318;BME280;4196;48.926;8.964;2023-05-02T05:29:06;99419.97;;;9.76;100.00
8318;BME280;4196;48.926;8.964;2023-05-02T05:31:58;99424.25;;;9.73;100.00
8318;BME280;4196;48.926;8.964;2023-05-02T05:34:45;99428.56;;;9.72;100.00
8318;BME280;4196;48.926;8.964;2023-05-02T05:37:32;99435.59;;;9.95;100.00
8318;BME280;4196;48.926;8.964;2023-05-02T05:40:20;99413.16;;;9.97;100.00
8318;BME280;4196;48.926;8.964;2023-05-02T05:43:12;99433.97;;;10.09;100.00
8318;BME280;4196;48.926;8.964;2023-05-02T05:45:59;99421.88;;;10.11;100.00
8318;BME280;4196;48.926;8.964;2023-05-02T05:48:46;99452.19;;;10.27;100.00
8318;BME280;4196;48.926;8.964;2023-05-02T05:51:34;99438.41;;;10.37;100.00
8318;BME280;4196;48.926;8.964;2023-05-02T05:54:20;99431.56;;;10.49;100.00
8318;BME280;4196;48.926;8.964;2023-05-02T05:57:07;99435.91;;;10.63;100.00
8318;BME280;4196;48.926;8.964;2023-05-02T05:59:55;99445.47;;;10.81;100.00
8318;BME280;4196;48.926;8.964;2023-05-02T06:02:42;99429.91;;;10.69;100.00
8318;BME280;4196;48.926;8.964;2023-05-02T06:05:35;99448.94;;;10.83;100.00
8318;BME280;4196;48.926;8.964;2023-05-02T06:08:22;99455.00;;;10.92;100.00
8318;BME280;4196;48.926;8.964;2023-05-02T06:11:09;99454.09;;;10.77;100.00
8318;BME280;4196;48.926;8.964;2023-05-02T06:13:56;99437.63;;;10.58;100.00
8318;BME280;4196;48.926;8.964;2023-05-02T06:16:43;99456.69;;;10.76;100.00
8318;BME280;4196;48.926;8.964;2023-05-02T06:19:30;99473.13;;;10.93;100.00
8318;BME280;4196;48.926;8.964;2023-05-02T06:22:17;99410.91;;;10.67;100.00
8318;BME280;4196;48.926;8.964;2023-05-02T06:25:03;99475.75;;;10.99;100.00
8318;BME280;4196;48.926;8.964;2023-05-02T06:27:50;99481.78;;;11.04;100.00
8318;BME280;4196;48.926;8.964;2023-05-02T06:30:36;99458.47;;;11.07;100.00
8318;BME280;4196;48.926;8.964;2023-05-02T06:33:23;99481.88;;;11.30;100.00
8318;BME280;4196;48.926;8.964;2023-05-02T06:36:09;99493.09;;;11.35;100.00
8318;BME280;4196;48.926;8.964;2023-05-02T06:38:56;99479.25;;;11.40;100.00
8318;BME280;4196;48.926;8.964;2023-05-02T06:41:43;99487.06;;;11.46;100.00
8318;BME280;4196;48.926;8.964;2023-05-02T06:44:34;99441.22;;;11.29;100.00
8318;BME280;4196;48.926;8.964;2023-05-02T06:47:20;99496.56;;;11.77;100.00
8318;BME280;4196;48.926;8.964;2023-05-02T06:50:09;99491.38;;;11.74;100.00
8318;BME280;4196;48.926;8.964;2023-05-02T06:52:56;99481.84;;;11.78;100.00
8318;BME280;4196;48.926;8.964;2023-05-02T06:55:44;99519.06;;;12.09;100.00
8318;BME280;4196;48.926;8.964;2023-05-02T06:58:31;99517.34;;;12.08;100.00
8318;BME280;4196;48.926;8.964;2023-05-02T07:01:17;99489.63;;;12.10;100.00
8318;BME280;4196;48.926;8.964;2023-05-02T07:04:04;99492.25;;;12.05;100.00
8318;BME280;4196;48.926;8.964;2023-05-02T07:06:51;99380.75;;;11.46;100.00
8318;BME280;4196;48.926;8.964;2023-05-02T07:09:38;99521.63;;;12.18;100.00
8318;BME280;4196;48.926;8.964;2023-05-02T07:12:24;99531.97;;;12.46;100.00
8318;BME280;4196;48.926;8.964;2023-05-02T07:15:11;99539.75;;;12.40;100.00
8318;BME280;4196;48.926;8.964;2023-05-02T07:17:59;99541.47;;;12.50;100.00
8318;BME280;4196;48.926;8.964;2023-05-02T07:20:46;99528.50;;;12.47;100.00
8318;BME280;4196;48.926;8.964;2023-05-02T07:23:32;99547.50;;;12.64;100.00
8318;BME280;4196;48.926;8.964;2023-05-02T07:26:19;99550.03;;;12.89;100.00
8318;BME280;4196;48.926;8.964;2023-05-02T07:29:06;99537.88;;;12.85;100.00
8318;BME280;4196;48.926;8.964;2023-05-02T07:31:53;99517.16;;;12.72;100.00
8318;BME280;4196;48.926;8.964;2023-05-02T07:34:40;99516.16;;;13.02;100.00
8318;BME280;4196;48.926;8.964;2023-05-02T07:37:31;99551.59;;;13.25;99.57
8318;BME280;4196;48.926;8.964;2023-05-02T07:40:20;99532.47;;;13.34;98.16
8318;BME280;4196;48.926;8.964;2023-05-02T07:43:06;99554.81;;;13.62;98.12
8318;BME280;4196;48.926;8.964;2023-05-02T07:45:56;99557.25;;;13.84;96.53
8318;BME280;4196;48.926;8.964;2023-05-02T07:48:43;99551.06;;;14.03;96.43
8318;BME280;4196;48.926;8.964;2023-05-02T07:51:30;99507.91;;;13.74;93.48
8318;BME280;4196;48.926;8.964;2023-05-02T07:54:21;99485.28;;;13.80;92.69
8318;BME280;4196;48.926;8.964;2023-05-02T07:57:08;99496.53;;;13.85;90.18
8318;BME280;4196;48.926;8.964;2023-05-02T07:59:55;99541.59;;;13.93;93.77
8318;BME280;4196;48.926;8.964;2023-05-02T08:02:45;99555.53;;;13.84;93.38
8318;BME280;4196;48.926;8.964;2023-05-02T08:05:32;99533.94;;;13.71;93.89
8318;BME280;4196;48.926;8.964;2023-05-02T08:08:18;99554.72;;;13.76;93.82
8318;BME280;4196;48.926;8.964;2023-05-02T08:11:05;99547.78;;;13.76;93.16
8318;BME280;4196;48.926;8.964;2023-05-02T08:13:52;99561.56;;;13.88;92.70
8318;BME280;4196;48.926;8.964;2023-05-02T08:16:39;99583.97;;;14.10;92.50
8318;BME280;4196;48.926;8.964;2023-05-02T08:19:26;99583.00;;;14.22;91.36
8318;BME280;4196;48.926;8.964;2023-05-02T08:22:12;99550.91;;;14.17;90.19
8318;BME280;4196;48.926;8.964;2023-05-02T08:24:58;99538.91;;;13.99;88.05
8318;BME280;4196;48.926;8.964;2023-05-02T08:27:45;99577.72;;;14.30;90.91
8318;BME280;4196;48.926;8.964;2023-05-02T08:30:32;99593.16;;;14.46;91.80
8318;BME280;4196;48.926;8.964;2023-05-02T08:33:18;99568.81;;;14.54;89.59
8318;BME280;4196;48.926;8.964;2023-05-02T08:36:15;99580.06;;;14.59;89.96
8318;BME280;4196;48.926;8.964;2023-05-02T08:39:02;99533.34;;;14.36;89.26
8318;BME280;4196;48.926;8.964;2023-05-02T08:41:49;99573.19;;;14.50;88.92
8318;BME280;4196;48.926;8.964;2023-05-02T08:44:36;99547.22;;;14.38;91.09
8318;BME280;4196;48.926;8.964;2023-05-02T08:47:24;99548.94;;;14.42;89.95
8318;BME280;4196;48.926;8.964;2023-05-02T08:50:11;99606.59;;;14.94;91.07
8318;BME280;4196;48.926;8.964;2023-05-02T08:52:58;99539.31;;;14.50;84.71
8318;BME280;4196;48.926;8.964;2023-05-02T08:55:45;99600.63;;;14.85;89.67
8318;BME280;4196;48.926;8.964;2023-05-02T08:58:35;99574.44;;;14.94;90.12
8318;BME280;4196;48.926;8.964;2023-05-02T09:01:22;99603.50;;;15.36;88.40
8318;BME280;4196;48.926;8.964;2023-05-02T09:04:09;99589.34;;;15.52;84.35
8318;BME280;4196;48.926;8.964;2023-05-02T09:06:56;99601.22;;;15.75;83.19
8318;BME280;4196;48.926;8.964;2023-05-02T09:09:43;99576.66;;;15.88;81.82
8318;BME280;4196;48.926;8.964;2023-05-02T09:12:29;99606.75;;;16.10;78.89
8318;BME280;4196;48.926;8.964;2023-05-02T09:15:16;99604.88;;;16.18;78.13
8318;BME280;4196;48.926;8.964;2023-05-02T09:18:05;99614.13;;;16.38;79.36
8318;BME280;4196;48.926;8.964;2023-05-02T09:20:53;99582.72;;;16.41;76.88
8318;BME280;4196;48.926;8.964;2023-05-02T09:23:44;99607.47;;;16.70;69.93
8318;BME280;4196;48.926;8.964;2023-05-02T09:26:31;99604.91;;;16.66;70.39
8318;BME280;4196;48.926;8.964;2023-05-02T09:29:19;99607.06;;;15.90;72.81
8318;BME280;4196;48.926;8.964;2023-05-02T09:32:05;99576.69;;;15.85;71.76
8318;BME280;4196;48.926;8.964;2023-05-02T09:35:05;99586.75;;;16.09;76.62
8318;BME280;4196;48.926;8.964;2023-05-02T09:37:56;99582.97;;;16.26;74.52
8318;BME280;4196;48.926;8.964;2023-05-02T09:40:53;99593.06;;;16.47;69.99
8318;BME280;4196;48.926;8.964;2023-05-02T09:43:42;99599.72;;;16.63;71.52
8318;BME280;4196;48.926;8.964;2023-05-02T09:46:38;99547.56;;;16.57;70.75
8318;BME280;4196;48.926;8.964;2023-05-02T09:52:24;99595.75;;;17.73;68.56
8318;BME280;4196;48.926;8.964;2023-05-02T09:55:19;99589.44;;;17.83;67.27
8318;BME280;4196;48.926;8.964;2023-05-02T09:58:06;99585.16;;;17.79;65.93
8318;BME280;4196;48.926;8.964;2023-05-02T10:01:05;99541.59;;;17.36;67.41
8318;BME280;4196;48.926;8.964;2023-05-02T10:03:52;99579.59;;;17.52;65.19
8318;BME280;4196;48.926;8.964;2023-05-02T10:06:39;99557.91;;;17.47;66.70
8318;BME280;4196;48.926;8.964;2023-05-02T10:09:26;99608.38;;;17.93;64.21
8318;BME280;4196;48.926;8.964;2023-05-02T10:12:14;99601.31;;;17.96;65.49
8318;BME280;4196;48.926;8.964;2023-05-02T10:15:02;99607.47;;;17.95;62.41
8318;BME280;4196;48.926;8.964;2023-05-02T10:17:50;99607.28;;;18.37;62.32
8318;BME280;4196;48.926;8.964;2023-05-02T10:20:43;99610.72;;;18.75;62.78
8318;BME280;4196;48.926;8.964;2023-05-02T10:23:33;99608.03;;;18.76;61.50
8318;BME280;4196;48.926;8.964;2023-05-02T10:26:20;99604.53;;;18.09;61.45
8318;BME280;4196;48.926;8.964;2023-05-02T10:29:09;99581.19;;;17.61;63.13
8318;BME280;4196;48.926;8.964;2023-05-02T10:31:56;99608.94;;;17.68;64.59
8318;BME280;4196;48.926;8.964;2023-05-02T10:34:45;99587.75;;;18.15;68.28
8318;BME280;4196;48.926;8.964;2023-05-02T10:37:35;99597.00;;;18.64;61.27
8318;BME280;4196;48.926;8.964;2023-05-02T10:40:22;99599.28;;;19.09;62.69
8318;BME280;4196;48.926;8.964;2023-05-02T10:43:14;99567.94;;;19.02;58.73
8318;BME280;4196;48.926;8.964;2023-05-02T10:46:01;99602.78;;;18.76;61.13
8318;BME280;4196;48.926;8.964;2023-05-02T10:49:07;99591.44;;;18.07;62.77
8318;BME280;4196;48.926;8.964;2023-05-02T10:51:53;99567.09;;;17.65;63.53
8318;BME280;4196;48.926;8.964;2023-05-02T10:54:39;99568.75;;;17.69;64.41
8318;BME280;4196;48.926;8.964;2023-05-02T10:57:26;99578.31;;;17.72;64.86
8318;BME280;4196;48.926;8.964;2023-05-02T11:00:23;99569.44;;;17.79;63.76
8318;BME280;4196;48.926;8.964;2023-05-02T11:03:10;99564.75;;;17.93;61.22
8318;BME280;4196;48.926;8.964;2023-05-02T11:06:04;99574.75;;;18.12;59.04
8318;BME280;4196;48.926;8.964;2023-05-02T11:08:52;99562.91;;;18.64;58.14
8318;BME280;4196;48.926;8.964;2023-05-02T11:11:40;99576.03;;;18.95;55.88
8318;BME280;4196;48.926;8.964;2023-05-02T11:17:16;99563.03;;;19.49;55.22
8318;BME280;4196;48.926;8.964;2023-05-02T11:22:50;99565.53;;;19.54;55.54
8318;BME280;4196;48.926;8.964;2023-05-02T11:25:39;99570.94;;;19.20;53.00
8318;BME280;4196;48.926;8.964;2023-05-02T11:34:14;99564.03;;;17.86;55.80
8318;BME280;4196;48.926;8.964;2023-05-02T11:37:13;99564.06;;;17.04;61.04
8318;BME280;4196;48.926;8.964;2023-05-02T11:40:13;99558.31;;;17.29;60.97
8318;BME280;4196;48.926;8.964;2023-05-02T11:43:11;99550.00;;;17.50;60.20
8318;BME280;4196;48.926;8.964;2023-05-02T11:45:58;99579.16;;;18.09;59.55
8318;BME280;4196;48.926;8.964;2023-05-02T11:48:45;99580.41;;;18.29;59.50
8318;BME280;4196;48.926;8.964;2023-05-02T11:51:34;99575.44;;;18.18;60.16
8318;BME280;4196;48.926;8.964;2023-05-02T11:54:20;99584.19;;;17.83;60.93
8318;BME280;4196;48.926;8.964;2023-05-02T11:57:08;99545.63;;;17.51;57.62
8318;BME280;4196;48.926;8.964;2023-05-02T11:59:56;99592.66;;;17.93;58.62
8318;BME280;4196;48.926;8.964;2023-05-02T12:02:44;99585.38;;;18.05;57.27
8318;BME280;4196;48.926;8.964;2023-05-02T12:05:31;99584.31;;;18.47;55.42
8318;BME280;4196;48.926;8.964;2023-05-02T12:08:28;99591.38;;;18.79;54.76
8318;BME280;4196;48.926;8.964;2023-05-02T12:11:15;99571.41;;;19.04;54.36
8318;BME280;4196;48.926;8.964;2023-05-02T12:14:03;99506.91;;;18.65;55.03
8318;BME280;4196;48.926;8.964;2023-05-02T12:16:49;99561.75;;;19.05;54.39
8318;BME280;4196;48.926;8.964;2023-05-02T12:19:36;99572.69;;;18.90;52.96
8318;BME280;4196;48.926;8.964;2023-05-02T12:22:24;99576.28;;;19.17;53.28
8318;BME280;4196;48.926;8.964;2023-05-02T12:25:11;99573.38;;;19.55;49.33
8318;BME280;4196;48.926;8.964;2023-05-02T12:28:02;99583.88;;;19.55;50.83
8318;BME280;4196;48.926;8.964;2023-05-02T12:30:49;99565.22;;;19.35;50.17
8318;BME280;4196;48.926;8.964;2023-05-02T12:33:42;99588.16;;;19.30;51.33
8318;BME280;4196;48.926;8.964;2023-05-02T12:36:29;99566.47;;;18.92;50.84
8318;BME280;4196;48.926;8.964;2023-05-02T12:39:15;99583.38;;;19.15;52.62
8318;BME280;4196;48.926;8.964;2023-05-02T12:44:56;99576.88;;;19.54;51.68
8318;BME280;4196;48.926;8.964;2023-05-02T12:47:45;99577.38;;;19.10;51.93
8318;BME280;4196;48.926;8.964;2023-05-02T12:50:38;99579.41;;;19.59;52.17
8318;BME280;4196;48.926;8.964;2023-05-02T12:53:41;99576.31;;;20.01;48.32
8318;BME280;4196;48.926;8.964;2023-05-02T12:56:29;99567.59;;;20.00;49.75
8318;BME280;4196;48.926;8.964;2023-05-02T13:02:11;99592.31;;;19.67;50.11
8318;BME280;4196;48.926;8.964;2023-05-02T13:04:58;99560.03;;;19.62;47.71
8318;BME280;4196;48.926;8.964;2023-05-02T13:07:45;99595.56;;;20.03;47.03
8318;BME280;4196;48.926;8.964;2023-05-02T13:10:31;99546.75;;;19.68;48.18
8318;BME280;4196;48.926;8.964;2023-05-02T13:13:18;99594.88;;;20.23;48.11
8318;BME280;4196;48.926;8.964;2023-05-02T13:16:05;99591.88;;;19.51;49.87
8318;BME280;4196;48.926;8.964;2023-05-02T13:18:52;99569.19;;;19.78;51.24
8318;BME280;4196;48.926;8.964;2023-05-02T13:21:38;99596.03;;;20.41;50.71
8318;BME280;4196;48.926;8.964;2023-05-02T13:24:25;99581.41;;;20.32;49.96
8318;BME280;4196;48.926;8.964;2023-05-02T13:27:12;99586.47;;;20.38;47.35
8318;BME280;4196;48.926;8.964;2023-05-02T13:29:59;99585.69;;;20.61;47.43
8318;BME280;4196;48.926;8.964;2023-05-02T13:32:53;99588.41;;;20.33;45.86
8318;BME280;4196;48.926;8.964;2023-05-02T13:35:42;99571.34;;;19.92;48.78
8318;BME280;4196;48.926;8.964;2023-05-02T13:38:28;99585.47;;;20.16;48.50
8318;BME280;4196;48.926;8.964;2023-05-02T13:41:18;99585.00;;;18.88;48.49
8318;BME280;4196;48.926;8.964;2023-05-02T13:44:05;99593.38;;;18.35;50.57
8318;BME280;4196;48.926;8.964;2023-05-02T13:46:51;99574.88;;;18.41;48.84
8318;BME280;4196;48.926;8.964;2023-05-02T13:49:38;99595.28;;;18.28;49.68
8318;BME280;4196;48.926;8.964;2023-05-02T13:52:24;99573.66;;;17.84;51.46
8318;BME280;4196;48.926;8.964;2023-05-02T13:55:11;99584.72;;;17.97;52.57
8318;BME280;4196;48.926;8.964;2023-05-02T13:57:58;99575.25;;;17.92;52.24
8318;BME280;4196;48.926;8.964;2023-05-02T14:00:44;99568.66;;;17.75;52.78
8318;BME280;4196;48.926;8.964;2023-05-02T14:03:31;99570.59;;;17.66;53.54
8318;BME280;4196;48.926;8.964;2023-05-02T14:06:17;99575.50;;;17.81;51.98
8318;BME280;4196;48.926;8.964;2023-05-02T14:09:04;99569.72;;;18.02;52.80
8318;BME280;4196;48.926;8.964;2023-05-02T14:11:52;99553.22;;;18.66;53.17
8318;BME280;4196;48.926;8.964;2023-05-02T14:14:39;99565.88;;;19.14;51.55
8318;BME280;4196;48.926;8.964;2023-05-02T14:17:25;99574.47;;;18.89;51.00
8318;BME280;4196;48.926;8.964;2023-05-02T14:20:12;99580.22;;;18.37;50.72
8318;BME280;4196;48.926;8.964;2023-05-02T14:22:58;99581.00;;;18.40;50.26
8318;BME280;4196;48.926;8.964;2023-05-02T14:25:45;99567.94;;;18.04;50.72
8318;BME280;4196;48.926;8.964;2023-05-02T14:28:31;99578.78;;;18.25;50.43
8318;BME280;4196;48.926;8.964;2023-05-02T14:31:18;99569.59;;;18.75;49.05
8318;BME280;4196;48.926;8.964;2023-05-02T14:34:04;99579.78;;;18.53;49.58
8318;BME280;4196;48.926;8.964;2023-05-02T14:36:54;99579.16;;;18.78;49.17
8318;BME280;4196;48.926;8.964;2023-05-02T14:39:41;99543.09;;;18.85;48.55
8318;BME280;4196;48.926;8.964;2023-05-02T14:42:29;99573.03;;;19.38;47.93
8318;BME280;4196;48.926;8.964;2023-05-02T14:45:16;99558.75;;;19.19;49.57
8318;BME280;4196;48.926;8.964;2023-05-02T14:48:02;99556.97;;;19.47;48.79
8318;BME280;4196;48.926;8.964;2023-05-02T14:50:49;99573.09;;;19.65;45.82
8318;BME280;4196;48.926;8.964;2023-05-02T14:53:35;99577.19;;;19.73;45.31
8318;BME280;4196;48.926;8.964;2023-05-02T14:56:21;99582.06;;;19.29;45.61
8318;BME280;4196;48.926;8.964;2023-05-02T14:59:08;99584.69;;;19.28;45.60
8318;BME280;4196;48.926;8.964;2023-05-02T15:01:55;99582.91;;;19.30;46.14
8318;BME280;4196;48.926;8.964;2023-05-02T15:04:42;99565.16;;;19.09;45.94
8318;BME280;4196;48.926;8.964;2023-05-02T15:07:28;99558.44;;;18.98;44.81
8318;BME280;4196;48.926;8.964;2023-05-02T15:10:15;99562.22;;;18.90;46.23
8318;BME280;4196;48.926;8.964;2023-05-02T15:13:01;99553.00;;;18.75;45.22
8318;BME280;4196;48.926;8.964;2023-05-02T15:15:49;99560.16;;;18.67;45.46
8318;BME280;4196;48.926;8.964;2023-05-02T15:18:35;99579.25;;;18.75;46.45
8318;BME280;4196;48.926;8.964;2023-05-02T15:21:21;99574.38;;;18.59;46.19
8318;BME280;4196;48.926;8.964;2023-05-02T15:24:08;99514.22;;;18.21;47.44
8318;BME280;4196;48.926;8.964;2023-05-02T15:26:55;99574.38;;;18.59;47.25
8318;BME280;4196;48.926;8.964;2023-05-02T15:29:42;99570.66;;;18.67;47.60
8318;BME280;4196;48.926;8.964;2023-05-02T15:32:28;99552.03;;;18.77;46.80
8318;BME280;4196;48.926;8.964;2023-05-02T15:35:14;99516.84;;;18.53;47.20
8318;BME280;4196;48.926;8.964;2023-05-02T15:38:01;99575.63;;;18.79;45.93
8318;BME280;4196;48.926;8.964;2023-05-02T15:40:58;99586.59;;;18.61;46.46
8318;BME280;4196;48.926;8.964;2023-05-02T15:43:44;99576.00;;;18.31;46.59
8318;BME280;4196;48.926;8.964;2023-05-02T15:46:31;99589.72;;;18.06;44.35